createdAt,value
2023-03-16T00:00:47.896Z,2.77
2023-03-16T00:01:47.926Z,2.79
2023-03-16T00:02:47.926Z,2.79
2023-03-16T00:03:47.847Z,2.81
2023-03-16T00:04:47.874Z,2.78
2023-03-16T00:05:47.945Z,2.79
2023-03-16T00:06:47.809Z,2.79
2023-03-16T00:07:47.858Z,2.79
2023-03-16T00:08:47.861Z,2.77
2023-03-16T00:09:47.938Z,2.74
2023-03-16T00:10:47.949Z,2.74
2023-03-16T00:11:47.856Z,2.74
2023-03-16T00:12:47.751Z,2.78
2023-03-16T00:13:47.743Z,2.78
2023-03-16T00:14:47.894Z,2.79
2023-03-16T00:15:47.798Z,2.75
2023-03-16T00:16:47.897Z,2.77
2023-03-16T00:17:47.717Z,2.74
2023-03-16T00:18:47.707Z,2.72
2023-03-16T00:19:47.893Z,2.74
2023-03-16T00:20:47.691Z,2.71
2023-03-16T00:21:47.748Z,2.67
2023-03-16T00:22:47.695Z,2.72
2023-03-16T00:23:47.684Z,2.72
2023-03-16T00:24:47.692Z,2.69
2023-03-16T00:25:47.626Z,2.67
2023-03-16T00:26:47.618Z,2.69
2023-03-16T00:27:47.623Z,2.71
2023-03-16T00:28:47.743Z,2.72
2023-03-16T00:29:47.622Z,2.72
2023-03-16T00:30:47.625Z,2.71
2023-03-16T00:31:47.688Z,2.74
2023-03-16T00:32:47.628Z,2.74
2023-03-16T00:33:47.543Z,2.74
2023-03-16T00:34:47.640Z,2.69
2023-03-16T00:35:47.543Z,2.71
2023-03-16T00:36:47.543Z,2.74
2023-03-16T00:37:47.611Z,2.67
2023-03-16T00:38:47.502Z,2.67
2023-03-16T00:39:47.467Z,2.67
2023-03-16T00:40:47.458Z,2.67
2023-03-16T00:41:47.521Z,2.74
2023-03-16T00:42:47.507Z,2.74
2023-03-16T00:43:47.462Z,2.67
2023-03-16T00:44:47.593Z,2.67
2023-03-16T00:45:47.538Z,2.64
2023-03-16T00:46:47.439Z,2.59
2023-03-16T00:47:47.440Z,2.57
2023-03-16T00:48:47.436Z,2.56
2023-03-16T00:49:47.380Z,2.57
2023-03-16T00:50:47.395Z,2.54
2023-03-16T00:51:47.366Z,2.56
2023-03-16T00:52:47.377Z,2.54
2023-03-16T00:53:47.422Z,2.57
2023-03-16T00:54:47.376Z,2.57
2023-03-16T00:55:47.359Z,2.60
2023-03-16T00:56:47.301Z,2.60
2023-03-16T00:57:47.302Z,2.59
2023-03-16T00:58:47.350Z,2.61
2023-03-16T00:59:47.405Z,2.59
2023-03-16T01:00:47.351Z,2.56
2023-03-16T01:01:47.277Z,2.56
2023-03-16T01:02:47.317Z,2.60
2023-03-16T01:03:48.007Z,2.60
2023-03-16T01:04:48.196Z,2.60
2023-03-16T01:05:53.200Z,2.56
2023-03-16T01:13:07.170Z,2.59
2023-03-16T01:15:11.808Z,2.60
2023-03-16T01:17:11.409Z,2.57
2023-03-16T01:18:10.922Z,2.59
2023-03-16T01:19:10.884Z,2.59
2023-03-16T01:20:10.875Z,2.60
2023-03-16T01:21:10.885Z,2.57
2023-03-16T01:22:10.851Z,2.59
2023-03-16T01:23:10.923Z,2.57
2023-03-16T01:24:10.859Z,2.56
2023-03-16T01:25:10.817Z,2.56
2023-03-16T01:26:10.907Z,2.53
2023-03-16T01:27:10.846Z,2.49
2023-03-16T01:28:10.864Z,2.48
2023-03-16T01:29:11.638Z,2.45
2023-03-16T01:30:10.883Z,2.41
2023-03-16T01:31:10.827Z,2.39
2023-03-16T01:32:10.773Z,2.36
2023-03-16T01:33:10.870Z,2.34
2023-03-16T01:34:11.022Z,2.30
2023-03-16T01:35:10.877Z,2.28
2023-03-16T01:36:10.726Z,2.30
2023-03-16T01:37:10.785Z,2.35
2023-03-16T01:38:10.802Z,2.41
2023-03-16T01:39:10.783Z,2.41
2023-03-16T01:40:10.739Z,2.41
2023-03-16T01:41:10.732Z,2.42
2023-03-16T01:42:10.676Z,2.42
2023-03-16T01:43:10.674Z,2.42
2023-03-16T01:44:10.655Z,2.39
2023-03-16T01:45:10.637Z,2.39
2023-03-16T01:46:10.712Z,2.41
2023-03-16T01:47:10.664Z,2.39
2023-03-16T01:48:10.610Z,2.39
2023-03-16T01:49:10.639Z,2.41
2023-03-16T01:50:10.655Z,2.43
2023-03-16T01:51:10.604Z,2.42
2023-03-16T01:52:10.584Z,2.41
2023-03-16T01:53:10.630Z,2.38
2023-03-16T01:54:10.596Z,2.38
2023-03-16T01:55:10.517Z,2.39
2023-03-16T01:56:10.548Z,2.41
2023-03-16T01:57:10.498Z,2.43
2023-03-16T01:58:10.479Z,2.43
2023-03-16T01:59:10.523Z,2.46
2023-03-16T02:00:10.507Z,2.45
2023-03-16T02:01:10.533Z,2.45
2023-03-16T02:02:10.484Z,2.45
2023-03-16T02:03:10.468Z,2.42
2023-03-16T02:04:10.497Z,2.41
2023-03-16T02:05:10.462Z,2.41
2023-03-16T02:06:10.418Z,2.39
2023-03-16T02:07:10.401Z,2.39
2023-03-16T02:08:10.392Z,2.38
2023-03-16T02:09:10.398Z,2.35
2023-03-16T02:10:10.407Z,2.35
2023-03-16T02:11:10.361Z,2.34
2023-03-16T02:12:10.361Z,2.30
2023-03-16T02:13:10.342Z,2.30
2023-03-16T02:14:10.357Z,2.27
2023-03-16T02:15:10.343Z,2.27
2023-03-16T02:16:10.339Z,2.25
2023-03-16T02:17:10.312Z,2.25
2023-03-16T02:18:10.311Z,2.25
2023-03-16T02:19:10.280Z,2.28
2023-03-16T02:20:10.302Z,2.28
2023-03-16T02:21:10.277Z,2.27
2023-03-16T02:22:10.269Z,2.28
2023-03-16T02:23:10.233Z,2.27
2023-03-16T02:24:10.234Z,2.31
2023-03-16T02:25:10.230Z,2.30
2023-03-16T02:26:10.234Z,2.30
2023-03-16T02:27:10.199Z,2.30
2023-03-16T02:28:10.225Z,2.28
2023-03-16T02:29:10.200Z,2.24
2023-03-16T02:30:10.186Z,2.20
2023-03-16T02:31:10.182Z,2.20
2023-03-16T02:32:10.144Z,2.18
2023-03-16T02:33:10.218Z,2.17
2023-03-16T02:34:10.155Z,2.20
2023-03-16T02:35:10.142Z,2.21
2023-03-16T02:36:10.121Z,2.21
2023-03-16T02:37:10.129Z,2.20
2023-03-16T02:38:10.116Z,2.20
2023-03-16T02:39:10.117Z,2.21
2023-03-16T02:40:10.096Z,2.20
2023-03-16T02:41:10.109Z,2.20
2023-03-16T02:42:10.093Z,2.18
2023-03-16T02:43:10.061Z,2.17
2023-03-16T02:44:10.061Z,2.16
2023-03-16T02:45:10.051Z,2.14
2023-03-16T02:46:10.108Z,2.14
2023-03-16T02:47:10.108Z,2.10
2023-03-16T02:48:10.012Z,2.10
2023-03-16T02:49:10.021Z,2.09
2023-03-16T02:50:09.988Z,2.12
2023-03-16T02:51:09.978Z,2.16
2023-03-16T02:52:09.977Z,2.17
2023-03-16T02:53:09.977Z,2.18
2023-03-16T02:54:09.932Z,2.17
2023-03-16T02:55:09.959Z,2.17
2023-03-16T02:56:09.908Z,2.17
2023-03-16T02:57:09.908Z,2.14
2023-03-16T02:58:10.014Z,2.14
2023-03-16T02:59:09.953Z,2.10
2023-03-16T03:00:09.893Z,2.10
2023-03-16T03:01:10.018Z,2.09
2023-03-16T03:02:11.285Z,2.05
2023-03-16T03:03:09.992Z,2.05
2023-03-16T03:04:09.825Z,2.02
2023-03-16T03:05:09.845Z,1.99
2023-03-16T03:06:09.815Z,1.99
2023-03-16T03:07:09.837Z,1.98
2023-03-16T03:08:09.792Z,1.95
2023-03-16T03:09:09.822Z,1.95
2023-03-16T03:10:09.862Z,1.99
2023-03-16T03:11:09.892Z,1.99
2023-03-16T03:12:09.792Z,1.98
2023-03-16T03:13:09.733Z,1.98
2023-03-16T03:14:09.745Z,1.95
2023-03-16T03:15:09.727Z,1.95
2023-03-16T03:16:09.811Z,1.93
2023-03-16T03:17:09.731Z,1.95
2023-03-16T03:18:09.741Z,1.98
2023-03-16T03:19:09.705Z,1.98
2023-03-16T03:20:09.697Z,1.98
2023-03-16T03:21:09.719Z,1.99
2023-03-16T03:22:09.682Z,2.00
2023-03-16T03:23:09.660Z,2.00
2023-03-16T03:24:09.654Z,2.00
2023-03-16T03:25:09.613Z,1.99
2023-03-16T03:26:09.638Z,2.00
2023-03-16T03:27:09.846Z,2.02
2023-03-16T03:28:09.704Z,2.00
2023-03-16T03:29:09.576Z,2.00
2023-03-16T03:30:09.582Z,2.00
2023-03-16T03:31:09.621Z,2.02
2023-03-16T03:32:09.598Z,1.99
2023-03-16T03:33:09.655Z,2.00
2023-03-16T03:34:09.564Z,1.99
2023-03-16T03:35:09.548Z,1.99
2023-03-16T03:36:09.543Z,2.02
2023-03-16T03:37:09.499Z,2.02
2023-03-16T03:38:09.523Z,2.00
2023-03-16T03:39:09.549Z,1.99
2023-03-16T03:40:09.465Z,2.00
2023-03-16T03:41:09.540Z,2.02
2023-03-16T03:42:09.464Z,2.02
2023-03-16T03:43:09.481Z,2.03
2023-03-16T03:44:09.477Z,2.00
2023-03-16T03:45:09.449Z,1.99
2023-03-16T03:46:10.215Z,1.98
2023-03-16T03:47:09.441Z,1.93
2023-03-16T03:48:09.417Z,1.91
2023-03-16T03:49:09.508Z,1.91
2023-03-16T03:50:09.389Z,1.91
2023-03-16T03:51:09.395Z,1.91
2023-03-16T03:52:09.401Z,1.91
2023-03-16T03:53:09.524Z,1.87
2023-03-16T03:54:09.794Z,1.87
2023-03-16T03:55:09.355Z,1.88
2023-03-16T03:56:09.311Z,1.90
2023-03-16T03:57:09.359Z,1.90
2023-03-16T03:58:09.284Z,1.88
2023-03-16T03:59:09.419Z,1.87
2023-03-16T04:00:09.292Z,1.87
2023-03-16T04:01:09.272Z,1.84
2023-03-16T04:02:09.347Z,1.83
2023-03-16T04:03:09.372Z,1.81
2023-03-16T04:04:09.278Z,1.81
2023-03-16T04:05:09.262Z,1.80
2023-03-16T04:06:09.249Z,1.77
2023-03-16T04:07:09.190Z,1.77
2023-03-16T04:08:09.210Z,1.76
2023-03-16T04:09:09.362Z,1.72
2023-03-16T04:10:09.261Z,1.72
2023-03-16T04:11:09.142Z,1.70
2023-03-16T04:12:09.222Z,1.72
2023-03-16T04:13:09.163Z,1.72
2023-03-16T04:14:09.191Z,1.72
2023-03-16T04:15:09.249Z,1.69
2023-03-16T04:16:09.121Z,1.68
2023-03-16T04:17:09.119Z,1.66
2023-03-16T04:18:09.107Z,1.70
2023-03-16T04:19:09.093Z,1.70
2023-03-16T04:20:09.106Z,1.68
2023-03-16T04:21:09.083Z,1.70
2023-03-16T04:22:09.058Z,1.68
2023-03-16T04:23:09.115Z,1.65
2023-03-16T04:24:09.162Z,1.65
2023-03-16T04:25:11.376Z,1.63
2023-03-16T04:26:09.052Z,1.60
2023-03-16T04:27:08.995Z,1.59
2023-03-16T04:28:09.089Z,1.60
2023-03-16T04:29:08.984Z,1.60
2023-03-16T04:30:09.013Z,1.59
2023-03-16T04:31:09.128Z,1.58
2023-03-16T04:32:09.089Z,1.60
2023-03-16T04:33:09.007Z,1.60
2023-03-16T04:34:08.930Z,1.58
2023-03-16T04:35:08.983Z,1.58
2023-03-16T04:36:09.122Z,1.54
2023-03-16T04:37:08.870Z,1.50
2023-03-16T04:38:08.940Z,1.50
2023-03-16T04:39:08.927Z,1.48
2023-03-16T04:40:10.860Z,1.45
2023-03-16T04:41:08.898Z,1.45
2023-03-16T04:42:08.883Z,1.41
2023-03-16T04:43:08.826Z,1.33
2023-03-16T04:44:08.830Z,1.30
2023-03-16T04:45:08.898Z,1.27
2023-03-16T04:46:08.792Z,1.29
2023-03-16T04:47:08.764Z,1.33
2023-03-16T04:48:09.443Z,1.30
2023-03-16T04:49:08.720Z,1.33
2023-03-16T04:50:08.732Z,1.36
2023-03-16T04:51:08.728Z,1.36
2023-03-16T04:52:08.704Z,1.37
2023-03-16T04:53:08.679Z,1.37
2023-03-16T04:54:08.720Z,1.40
2023-03-16T04:55:08.738Z,1.40
2023-03-16T04:56:09.514Z,1.37
2023-03-16T04:57:08.679Z,1.40
2023-03-16T04:58:08.718Z,1.36
2023-03-16T04:59:08.688Z,1.36
2023-03-16T05:00:08.692Z,1.34
2023-03-16T05:01:08.712Z,1.33
2023-03-16T05:02:08.626Z,1.29
2023-03-16T05:03:08.679Z,1.27
2023-03-16T05:04:09.411Z,1.26
2023-03-16T05:05:08.626Z,1.26
2023-03-16T05:06:08.567Z,1.26
2023-03-16T05:07:08.655Z,1.23
2023-03-16T05:08:08.563Z,1.23
2023-03-16T05:09:08.555Z,1.22
2023-03-16T05:10:08.593Z,1.20
2023-03-16T05:11:08.532Z,1.20
2023-03-16T05:12:08.513Z,1.16
2023-03-16T05:13:08.487Z,1.18
2023-03-16T05:14:08.544Z,1.20
2023-03-16T05:15:08.581Z,1.22
2023-03-16T05:16:08.526Z,1.24
2023-03-16T05:17:08.452Z,1.24
2023-03-16T05:18:08.425Z,1.26
2023-03-16T05:19:08.449Z,1.23
2023-03-16T05:20:08.492Z,1.26
2023-03-16T05:21:08.464Z,1.26
2023-03-16T05:22:08.396Z,1.27
2023-03-16T05:23:08.428Z,1.27
2023-03-16T05:24:08.389Z,1.26
2023-03-16T05:25:08.444Z,1.27
2023-03-16T05:26:08.400Z,1.29
2023-03-16T05:27:08.371Z,1.30
2023-03-16T05:28:08.385Z,1.30
2023-03-16T05:29:08.347Z,1.29
2023-03-16T05:30:08.412Z,1.32
2023-03-16T05:31:08.626Z,1.33
2023-03-16T05:32:08.304Z,1.34
2023-03-16T05:33:08.374Z,1.37
2023-03-16T05:34:08.290Z,1.36
2023-03-16T05:35:08.306Z,1.40
2023-03-16T05:36:08.339Z,1.41
2023-03-16T05:37:08.240Z,1.42
2023-03-16T05:38:08.282Z,1.42
2023-03-16T05:39:08.254Z,1.44
2023-03-16T05:40:08.253Z,1.40
2023-03-16T05:41:08.220Z,1.41
2023-03-16T05:42:08.229Z,1.36
2023-03-16T05:43:08.225Z,1.34
2023-03-16T05:44:08.171Z,1.34
2023-03-16T05:45:08.191Z,1.34
2023-03-16T05:46:08.227Z,1.44
2023-03-16T05:47:08.285Z,1.76
2023-03-16T05:48:08.165Z,2.27
2023-03-16T05:49:08.157Z,2.71
2023-03-16T05:50:08.144Z,3.03
2023-03-16T05:51:08.144Z,3.50
2023-03-16T05:52:08.162Z,3.87
2023-03-16T05:53:08.126Z,4.26
2023-03-16T05:54:08.074Z,4.65
2023-03-16T05:55:08.074Z,4.97
2023-03-16T05:56:08.088Z,5.30
2023-03-16T05:57:08.085Z,5.58
2023-03-16T05:58:08.036Z,5.83
2023-03-16T05:59:08.030Z,6.08
2023-03-16T06:00:08.030Z,6.28
2023-03-16T06:01:08.028Z,6.43
2023-03-16T06:02:08.042Z,6.59
2023-03-16T06:03:08.059Z,6.87
2023-03-16T06:04:08.113Z,6.99
2023-03-16T06:05:08.060Z,7.17
2023-03-16T06:06:08.037Z,7.34
2023-03-16T06:07:08.050Z,7.40
2023-03-16T06:08:08.017Z,7.43
2023-03-16T06:09:07.957Z,7.32
2023-03-16T06:10:08.023Z,6.97
2023-03-16T06:11:07.919Z,6.52
2023-03-16T06:12:07.989Z,6.09
2023-03-16T06:13:07.996Z,5.74
2023-03-16T06:14:07.897Z,5.40
2023-03-16T06:15:07.903Z,5.06
2023-03-16T06:16:07.944Z,4.75
2023-03-16T06:17:07.845Z,4.51
2023-03-16T06:18:07.909Z,4.29
2023-03-16T06:19:07.844Z,4.09
2023-03-16T06:20:07.962Z,3.93
2023-03-16T06:21:07.831Z,3.80
2023-03-16T06:22:07.942Z,3.73
2023-03-16T06:23:07.838Z,3.60
2023-03-16T06:24:07.851Z,3.50
2023-03-16T06:25:07.867Z,3.39
2023-03-16T06:26:07.778Z,3.35
2023-03-16T06:27:07.831Z,3.28
2023-03-16T06:28:07.775Z,3.24
2023-03-16T06:29:07.761Z,3.15
2023-03-16T06:30:07.768Z,3.06
2023-03-16T06:31:07.776Z,3.03
2023-03-16T06:32:07.732Z,3.03
2023-03-16T06:33:07.723Z,3.03
2023-03-16T06:34:07.704Z,3.02
2023-03-16T06:35:07.818Z,3.03
2023-03-16T06:36:07.694Z,3.00
2023-03-16T06:37:07.687Z,2.99
2023-03-16T06:38:07.646Z,3.00
2023-03-16T06:39:07.636Z,2.97
2023-03-16T06:40:07.615Z,2.96
2023-03-16T06:41:07.634Z,2.93
2023-03-16T06:42:07.658Z,2.92
2023-03-16T06:43:07.606Z,2.95
2023-03-16T06:44:07.827Z,2.93
2023-03-16T06:45:07.586Z,2.96
2023-03-16T06:46:07.674Z,2.96
2023-03-16T06:47:07.586Z,2.95
2023-03-16T06:48:07.556Z,2.93
2023-03-16T06:49:07.537Z,2.93
2023-03-16T06:50:07.542Z,2.93
2023-03-16T06:51:07.556Z,2.87
2023-03-16T06:52:07.548Z,2.93
2023-03-16T06:53:07.542Z,2.97
2023-03-16T06:54:07.469Z,2.95
2023-03-16T06:55:07.558Z,2.96
2023-03-16T06:56:07.494Z,3.00
2023-03-16T06:57:07.510Z,3.05
2023-03-16T06:58:07.458Z,3.11
2023-03-16T06:59:07.447Z,3.17
2023-03-16T07:00:07.509Z,3.17
2023-03-16T07:01:07.495Z,3.15
2023-03-16T07:02:07.419Z,3.20
2023-03-16T07:03:07.391Z,3.28
2023-03-16T07:04:07.451Z,3.31
2023-03-16T07:05:07.396Z,3.26
2023-03-16T07:06:07.933Z,3.28
2023-03-16T07:07:07.377Z,3.31
2023-03-16T07:08:07.348Z,3.32
2023-03-16T07:09:07.355Z,3.36
2023-03-16T07:10:07.407Z,3.39
2023-03-16T07:11:07.393Z,3.36
2023-03-16T07:12:07.283Z,3.40
2023-03-16T07:13:07.305Z,3.45
2023-03-16T07:14:07.287Z,3.51
2023-03-16T07:15:07.498Z,3.54
2023-03-16T07:16:07.331Z,3.55
2023-03-16T07:17:07.312Z,3.62
2023-03-16T07:18:07.223Z,3.69
2023-03-16T07:19:07.228Z,3.69
2023-03-16T07:20:07.323Z,3.73
2023-03-16T07:21:07.310Z,3.79
2023-03-16T07:22:07.207Z,3.87
2023-03-16T07:23:07.256Z,3.88
2023-03-16T07:24:07.198Z,3.96
2023-03-16T07:25:07.194Z,4.00
2023-03-16T07:26:07.230Z,4.06
2023-03-16T07:27:07.187Z,4.09
2023-03-16T07:28:07.156Z,4.08
2023-03-16T07:29:07.135Z,4.05
2023-03-16T07:30:07.105Z,4.11
2023-03-16T07:31:07.118Z,4.16
2023-03-16T07:32:07.154Z,4.22
2023-03-16T07:33:07.166Z,4.29
2023-03-16T07:34:07.081Z,4.40
2023-03-16T07:35:07.064Z,4.47
2023-03-16T07:36:07.091Z,4.58
2023-03-16T07:37:07.063Z,4.66
2023-03-16T07:38:07.046Z,4.78
2023-03-16T07:39:07.055Z,4.85
2023-03-16T07:40:07.054Z,4.84
2023-03-16T07:41:07.027Z,4.84
2023-03-16T07:42:07.008Z,4.88
2023-03-16T07:43:07.063Z,4.92
2023-03-16T07:44:06.991Z,4.97
2023-03-16T07:45:07.080Z,5.00
2023-03-16T07:46:07.111Z,5.04
2023-03-16T07:47:07.028Z,5.07
2023-03-16T07:48:07.001Z,5.07
2023-03-16T07:49:06.948Z,5.10
2023-03-16T07:50:06.956Z,5.18
2023-03-16T07:51:06.942Z,5.12
2023-03-16T07:52:06.928Z,5.10
2023-03-16T07:53:06.916Z,5.13
2023-03-16T07:54:06.866Z,5.13
2023-03-16T07:55:06.948Z,5.17
2023-03-16T07:56:06.896Z,5.17
2023-03-16T07:57:06.869Z,5.24
2023-03-16T07:58:06.867Z,5.30
2023-03-16T07:59:06.849Z,5.39
2023-03-16T08:00:06.875Z,5.46
2023-03-16T08:01:06.826Z,5.54
2023-03-16T08:02:07.818Z,5.60
2023-03-16T08:03:06.929Z,5.74
2023-03-16T08:04:06.929Z,5.79
2023-03-16T08:05:06.784Z,5.81
2023-03-16T08:06:06.850Z,5.86
2023-03-16T08:07:06.735Z,5.96
2023-03-16T08:08:06.759Z,6.01
2023-03-16T08:09:06.755Z,6.08
2023-03-16T08:10:07.154Z,5.99
2023-03-16T08:11:07.290Z,5.89
2023-03-16T08:12:07.863Z,5.93
2023-03-16T08:13:17.162Z,5.94
2023-03-16T08:14:06.691Z,5.99
2023-03-16T08:15:06.702Z,5.94
2023-03-16T08:16:06.851Z,5.96
2023-03-16T08:17:06.884Z,5.96
2023-03-16T08:18:06.756Z,6.04
2023-03-16T08:19:10.911Z,6.08
2023-03-16T08:20:06.859Z,6.00
2023-03-16T08:21:06.619Z,6.08
2023-03-16T08:22:06.600Z,6.21
2023-03-16T08:23:06.715Z,6.31
2023-03-16T08:24:07.620Z,6.37
2023-03-16T08:25:06.623Z,6.49
2023-03-16T08:26:06.595Z,6.52
2023-03-16T08:27:06.587Z,6.55
2023-03-16T08:28:06.557Z,6.56
2023-03-16T08:29:06.616Z,6.59
2023-03-16T08:30:06.568Z,6.69
2023-03-16T08:31:06.598Z,6.64
2023-03-16T08:32:06.559Z,6.74
2023-03-16T08:33:06.701Z,6.81
2023-03-16T08:34:06.526Z,6.88
2023-03-16T08:35:06.485Z,6.97
2023-03-16T08:36:06.539Z,7.02
2023-03-16T08:37:06.482Z,7.13
2023-03-16T08:38:06.444Z,7.20
2023-03-16T08:39:07.747Z,7.28
2023-03-16T08:40:06.642Z,7.32
2023-03-16T08:41:06.477Z,7.32
2023-03-16T08:42:06.437Z,7.27
2023-03-16T08:43:06.551Z,7.30
2023-03-16T08:44:06.418Z,7.30
2023-03-16T08:45:06.406Z,7.30
2023-03-16T08:46:06.532Z,7.37
2023-03-16T08:47:06.357Z,7.39
2023-03-16T08:48:07.222Z,7.39
2023-03-16T08:49:06.778Z,7.37
2023-03-16T08:50:06.334Z,7.39
2023-03-16T08:51:06.341Z,7.40
2023-03-16T08:52:06.355Z,7.53
2023-03-16T08:53:06.361Z,7.64
2023-03-16T08:54:06.307Z,7.75
2023-03-16T08:55:06.377Z,7.75
2023-03-16T08:56:06.270Z,7.61
2023-03-16T08:57:06.296Z,7.52
2023-03-16T08:58:06.312Z,7.48
2023-03-16T08:59:07.783Z,7.52
2023-03-16T09:00:06.248Z,7.61
2023-03-16T09:01:06.245Z,7.57
2023-03-16T09:02:06.693Z,7.58
2023-03-16T09:03:06.189Z,7.67
2023-03-16T09:04:06.178Z,7.80
2023-03-16T09:05:06.160Z,7.92
2023-03-16T09:06:06.166Z,7.87
2023-03-16T09:07:09.255Z,7.89
2023-03-16T09:08:06.192Z,7.95
2023-03-16T09:09:06.108Z,7.93
2023-03-16T09:10:06.099Z,8.00
2023-03-16T09:11:06.110Z,8.04
2023-03-16T09:12:06.146Z,8.12
2023-03-16T09:13:06.209Z,8.16
2023-03-16T09:14:07.063Z,8.20
2023-03-16T09:15:06.080Z,8.34
2023-03-16T09:16:06.202Z,8.38
2023-03-16T09:17:06.070Z,8.36
2023-03-16T09:18:06.069Z,8.44
2023-03-16T09:19:06.087Z,8.44
2023-03-16T09:20:21.226Z,8.50
2023-03-16T09:21:06.990Z,8.58
2023-03-16T09:22:06.292Z,8.43
2023-03-16T09:23:06.016Z,8.36
2023-03-16T09:24:05.998Z,8.28
2023-03-16T09:25:05.971Z,8.25
2023-03-16T09:26:05.992Z,8.15
2023-03-16T09:27:06.117Z,8.18
2023-03-16T09:28:05.952Z,8.19
2023-03-16T09:29:05.916Z,8.16
2023-03-16T09:30:05.925Z,8.15
2023-03-16T09:31:05.983Z,8.19
2023-03-16T09:32:05.973Z,8.29
2023-03-16T09:33:06.612Z,8.36
2023-03-16T09:34:05.914Z,8.44
2023-03-16T09:35:06.138Z,8.48
2023-03-16T09:36:05.884Z,8.50
2023-03-16T09:37:05.859Z,8.58
2023-03-16T09:38:06.720Z,8.68
2023-03-16T09:39:05.837Z,8.80
2023-03-16T09:40:10.418Z,8.94
2023-03-16T09:41:06.837Z,8.86
2023-03-16T09:42:05.828Z,8.91
2023-03-16T09:43:05.789Z,8.99
2023-03-16T09:44:05.826Z,9.10
2023-03-16T09:45:05.807Z,9.15
2023-03-16T09:46:05.835Z,9.11
2023-03-16T09:47:05.765Z,9.11
2023-03-16T09:48:05.760Z,9.10
2023-03-16T09:49:05.729Z,9.18
2023-03-16T09:50:05.870Z,9.20
2023-03-16T09:51:05.864Z,9.15
2023-03-16T09:52:05.732Z,9.20
2023-03-16T09:53:05.692Z,9.20
2023-03-16T09:54:13.488Z,9.20
2023-03-16T09:55:05.712Z,9.14
2023-03-16T09:56:05.699Z,9.08
2023-03-16T09:57:06.458Z,9.13
2023-03-16T09:58:05.968Z,9.08
2023-03-16T09:59:07.027Z,8.92
2023-03-16T10:00:05.870Z,8.96
2023-03-16T10:01:05.787Z,8.95
2023-03-16T10:02:05.686Z,9.05
2023-03-16T10:03:05.785Z,8.89
2023-03-16T10:04:05.829Z,8.74
2023-03-16T10:05:05.883Z,8.91
2023-03-16T10:06:06.014Z,8.96
2023-03-16T10:07:06.051Z,8.99
2023-03-16T10:08:05.908Z,9.14
2023-03-16T10:09:06.166Z,9.23
2023-03-16T10:10:05.626Z,9.26
2023-03-16T10:11:05.652Z,9.40
2023-03-16T10:12:05.765Z,9.48
2023-03-16T10:13:05.688Z,9.64
2023-03-16T10:14:05.585Z,9.61
2023-03-16T10:15:06.900Z,9.50
2023-03-16T10:16:05.765Z,9.36
2023-03-16T10:17:06.406Z,9.38
2023-03-16T10:18:05.673Z,9.43
2023-03-16T10:19:05.509Z,9.48
2023-03-16T10:20:05.491Z,9.53
2023-03-16T10:21:05.585Z,9.66
2023-03-16T10:22:05.611Z,9.71
2023-03-16T10:23:07.484Z,9.56
2023-03-16T10:24:06.346Z,9.53
2023-03-16T10:25:05.646Z,9.53
2023-03-16T10:26:05.348Z,9.58
2023-03-16T10:27:05.348Z,9.58
2023-03-16T10:28:05.439Z,9.69
2023-03-16T10:29:05.446Z,9.78
2023-03-16T10:30:05.760Z,9.74
2023-03-16T10:31:05.352Z,9.86
2023-03-16T10:32:05.689Z,9.91
2023-03-16T10:33:05.842Z,9.93
2023-03-16T10:34:05.546Z,9.89
2023-03-16T10:35:05.403Z,9.84
2023-03-16T10:36:05.734Z,9.86
2023-03-16T10:37:05.490Z,9.87
2023-03-16T10:38:05.326Z,9.94
2023-03-16T10:39:05.595Z,9.97
2023-03-16T10:40:05.729Z,10.01
2023-03-16T10:41:05.307Z,10.04
2023-03-16T10:42:06.132Z,10.09
2023-03-16T10:43:05.643Z,10.07
2023-03-16T10:44:05.558Z,9.72
2023-03-16T10:45:05.624Z,9.51
2023-03-16T10:46:05.451Z,9.50
2023-03-16T10:47:05.418Z,9.56
2023-03-16T10:48:05.195Z,9.71
2023-03-16T10:49:05.617Z,9.87
2023-03-16T10:50:05.362Z,10.04
2023-03-16T10:51:05.400Z,10.08
2023-03-16T10:52:05.095Z,10.09
2023-03-16T10:53:05.284Z,10.20
2023-03-16T10:54:05.391Z,10.25
2023-03-16T10:55:05.113Z,10.17
2023-03-16T10:56:05.150Z,10.23
2023-03-16T10:57:05.101Z,10.26
2023-03-16T10:58:05.637Z,10.25
2023-03-16T10:59:12.613Z,10.34
2023-03-16T11:00:04.978Z,10.42
2023-03-16T11:01:04.985Z,10.40
2023-03-16T11:02:04.935Z,10.34
2023-03-16T11:03:04.940Z,10.29
2023-03-16T11:04:04.961Z,10.20
2023-03-16T11:05:05.051Z,10.25
2023-03-16T11:06:04.919Z,10.23
2023-03-16T11:07:04.930Z,10.17
2023-03-16T11:08:04.907Z,10.18
2023-03-16T11:09:04.927Z,10.05
2023-03-16T11:10:04.931Z,9.93
2023-03-16T11:11:04.935Z,9.90
2023-03-16T11:12:04.926Z,9.91
2023-03-16T11:13:04.837Z,10.04
2023-03-16T11:14:04.875Z,9.97
2023-03-16T11:15:09.378Z,9.93
2023-03-16T11:16:05.870Z,9.68
2023-03-16T11:17:05.366Z,9.75
2023-03-16T11:18:04.883Z,9.83
2023-03-16T11:19:04.825Z,10.05
2023-03-16T11:20:04.819Z,10.18
2023-03-16T11:21:04.786Z,10.32
2023-03-16T11:22:04.802Z,10.42
2023-03-16T11:23:04.772Z,10.47
2023-03-16T11:24:04.799Z,10.66
2023-03-16T11:25:04.804Z,10.78
2023-03-16T11:26:04.759Z,10.53
2023-03-16T11:27:04.777Z,10.36
2023-03-16T11:28:05.511Z,10.26
2023-03-16T11:29:04.676Z,9.96
2023-03-16T11:30:04.817Z,9.71
2023-03-16T11:31:04.833Z,9.78
2023-03-16T11:32:04.764Z,9.74
2023-03-16T11:33:04.746Z,9.87
2023-03-16T11:34:04.782Z,9.93
2023-03-16T11:35:04.700Z,10.14
2023-03-16T11:36:04.749Z,10.20
2023-03-16T11:37:04.646Z,10.22
2023-03-16T11:38:04.607Z,10.27
2023-03-16T11:39:04.665Z,10.34
2023-03-16T11:40:05.424Z,10.52
2023-03-16T11:41:04.875Z,10.40
2023-03-16T11:42:04.647Z,10.45
2023-03-16T11:43:04.608Z,10.48
2023-03-16T11:44:04.689Z,10.53
2023-03-16T11:45:04.789Z,10.70
2023-03-16T11:46:04.643Z,10.81
2023-03-16T11:47:04.547Z,10.84
2023-03-16T11:48:05.329Z,10.92
2023-03-16T11:49:04.472Z,11.07
2023-03-16T11:50:04.707Z,11.09
2023-03-16T11:51:04.479Z,11.07
2023-03-16T11:52:04.487Z,11.09
2023-03-16T11:53:04.469Z,11.17
2023-03-16T11:54:04.438Z,11.25
2023-03-16T11:55:04.509Z,11.33
2023-03-16T11:56:04.407Z,11.32
2023-03-16T11:57:04.420Z,11.28
2023-03-16T11:58:04.373Z,11.27
2023-03-16T11:59:04.341Z,11.32
2023-03-16T12:00:04.375Z,11.32
2023-03-16T12:01:04.420Z,11.11
2023-03-16T12:02:04.405Z,10.71
2023-03-16T12:03:04.386Z,10.60
2023-03-16T12:04:04.413Z,10.52
2023-03-16T12:05:04.309Z,10.41
2023-03-16T12:06:16.930Z,10.59
2023-03-16T12:07:05.303Z,10.71
2023-03-16T12:08:04.334Z,10.74
2023-03-16T12:09:04.317Z,10.84
2023-03-16T12:10:04.240Z,10.94
2023-03-16T12:11:04.353Z,10.86
2023-03-16T12:12:04.241Z,10.71
2023-03-16T12:13:04.236Z,10.73
2023-03-16T12:14:04.241Z,10.70
2023-03-16T12:15:04.214Z,10.79
2023-03-16T12:16:04.289Z,10.88
2023-03-16T12:17:04.266Z,10.99
2023-03-16T12:18:04.171Z,11.09
2023-03-16T12:19:04.273Z,11.21
2023-03-16T12:20:04.196Z,11.25
2023-03-16T12:21:04.208Z,11.29
2023-03-16T12:22:04.169Z,11.35
2023-03-16T12:23:04.131Z,11.37
2023-03-16T12:24:04.126Z,11.46
2023-03-16T12:25:04.129Z,11.57
2023-03-16T12:26:04.121Z,11.60
2023-03-16T12:27:04.067Z,11.57
2023-03-16T12:28:04.091Z,11.54
2023-03-16T12:29:04.098Z,11.51
2023-03-16T12:30:04.025Z,11.55
2023-03-16T12:31:04.095Z,11.61
2023-03-16T12:32:04.039Z,11.64
2023-03-16T12:33:04.795Z,11.64
2023-03-16T12:34:04.087Z,11.44
2023-03-16T12:35:04.045Z,11.35
2023-03-16T12:36:04.002Z,11.40
2023-03-16T12:37:03.968Z,11.27
2023-03-16T12:38:03.955Z,11.29
2023-03-16T12:39:04.048Z,11.35
2023-03-16T12:40:03.960Z,11.33
2023-03-16T12:41:03.958Z,11.42
2023-03-16T12:42:04.109Z,11.32
2023-03-16T12:43:03.930Z,11.32
2023-03-16T12:44:03.945Z,11.32
2023-03-16T12:45:03.884Z,11.33
2023-03-16T12:46:04.041Z,11.28
2023-03-16T12:47:03.861Z,11.24
2023-03-16T12:48:03.910Z,11.29
2023-03-16T12:49:03.853Z,11.42
2023-03-16T12:50:03.818Z,11.29
2023-03-16T12:51:03.820Z,11.19
2023-03-16T12:52:03.808Z,11.21
2023-03-16T12:53:03.869Z,11.33
2023-03-16T12:54:03.852Z,11.40
2023-03-16T12:55:03.834Z,11.47
2023-03-16T12:56:03.750Z,11.52
2023-03-16T12:57:03.766Z,11.42
2023-03-16T12:58:03.768Z,11.25
2023-03-16T12:59:03.741Z,11.25
2023-03-16T13:00:03.986Z,11.29
2023-03-16T13:01:06.204Z,11.22
2023-03-16T13:02:03.698Z,11.32
2023-03-16T13:03:04.014Z,11.44
2023-03-16T13:04:03.734Z,11.49
2023-03-16T13:05:03.672Z,11.46
2023-03-16T13:06:03.657Z,11.54
2023-03-16T13:07:03.670Z,11.47
2023-03-16T13:08:03.757Z,11.46
2023-03-16T13:09:03.682Z,11.47
2023-03-16T13:10:11.189Z,11.52
2023-03-16T13:11:03.639Z,11.57
2023-03-16T13:12:03.610Z,11.62
2023-03-16T13:13:03.600Z,11.57
2023-03-16T13:14:03.669Z,11.42
2023-03-16T13:15:03.590Z,11.27
2023-03-16T13:16:03.607Z,11.36
2023-03-16T13:17:03.963Z,11.49
2023-03-16T13:18:03.619Z,11.54
2023-03-16T13:19:04.379Z,11.35
2023-03-16T13:20:03.585Z,11.33
2023-03-16T13:21:03.530Z,11.39
2023-03-16T13:22:03.774Z,11.43